Time;durP1;ratioP1;P1;durP2;ratioP2;P2;SDS_P1;SDS_P2;PMS_P1;PMS_P2;Temp;Humidity;BMP_temperature;BMP_pressure;BME280_temperature;BME280_humidity;BME280_pressure;Samples;Min_cycle;Max_cycle;Signal;HPM_P1;HPM_P2
2021/08/08 00:01:53;;;;;;;8.05;4.62;;;;;;;16.84;83.58;98880.16;1890098;76;20097;-68
2021/08/08 00:04:28;;;;;;;7.47;4.25;;;;;;;16.82;83.80;98879.77;1870691;76;22113;-65
2021/08/08 00:07:04;;;;;;;6.67;4.67;;;;;;;16.76;83.92;98882.41;1842020;77;27596;-65
2021/08/08 00:10:00;;;;;;;7.33;4.05;;;;;;;16.76;84.07;98885.02;1870426;76;22173;-53
2021/08/08 00:12:35;;;;;;;7.60;4.37;;;;;;;16.69;84.19;98885.12;1870696;76;22156;-65
2021/08/08 00:15:12;;;;;;;8.55;4.70;;;;;;;16.66;84.39;98891.69;1873918;76;27908;-61
2021/08/08 00:18:08;;;;;;;7.58;4.78;;;;;;;16.76;84.46;98891.08;1870568;76;22551;-62
2021/08/08 00:20:43;;;;;;;7.40;5.17;;;;;;;16.71;84.44;98897.70;1870729;76;20351;-66
2021/08/08 00:23:18;;;;;;;7.03;4.95;;;;;;;16.64;84.61;98893.45;1873930;76;28346;-68
2021/08/08 00:26:35;;;;;;;8.93;5.47;;;;;;;16.67;84.71;98896.01;1820894;77;27925;-61
2021/08/08 00:29:10;;;;;;;9.20;5.85;;;;;;;16.74;84.72;98895.91;1889988;76;22189;-61
2021/08/08 00:31:45;;;;;;;8.18;5.25;;;;;;;16.52;84.87;98883.20;1870718;76;22133;-59
2021/08/08 00:34:20;;;;;;;8.35;5.95;;;;;;;16.59;84.88;98888.75;1854804;76;28346;-51
2021/08/08 00:37:15;;;;;;;9.33;6.17;;;;;;;16.53;84.94;98890.57;1889914;76;22188;-54
2021/08/08 00:39:49;;;;;;;10.50;5.87;;;;;;;16.58;84.97;98887.45;1870740;76;22109;-59
2021/08/08 00:42:24;;;;;;;8.88;5.45;;;;;;;16.51;85.17;98897.09;1870689;76;22493;-54
2021/08/08 00:45:00;;;;;;;8.75;5.17;;;;;;;16.43;85.25;98891.99;1870550;76;20347;-57
2021/08/08 00:47:35;;;;;;;8.35;4.60;;;;;;;16.39;85.51;98898.59;1890031;76;22128;-54
2021/08/08 00:50:12;;;;;;;7.97;4.95;;;;;;;16.37;85.70;98887.33;1871152;76;22104;-56
2021/08/08 00:52:53;;;;;;;8.33;4.40;;;;;;;16.35;85.67;98885.17;1869917;76;22562;-58
2021/08/08 00:55:28;;;;;;;8.53;4.83;;;;;;;16.33;85.75;98886.48;1870770;76;22113;-65
2021/08/08 00:58:03;;;;;;;9.85;5.08;;;;;;;16.31;85.87;98883.48;1854810;76;27907;-61
2021/08/08 01:00:41;;;;;;;9.13;4.33;;;;;;;16.39;85.89;98888.17;1889948;76;22530;-60
2021/08/08 01:03:16;;;;;;;9.83;4.85;;;;;;;16.40;85.82;98892.48;1870636;76;22216;-61
2021/08/08 01:06:20;;;;;;;7.87;5.22;;;;;;;16.41;85.91;98894.20;1854709;76;28012;-61
2021/08/08 01:09:00;;;;;;;11.25;5.72;;;;;;;16.46;85.82;98889.78;1890016;76;22108;-61
2021/08/08 01:11:36;;;;;;;7.85;5.10;;;;;;;16.44;85.64;98891.58;1870680;76;22543;-54
2021/08/08 01:14:13;;;;;;;9.83;5.55;;;;;;;16.39;85.85;98905.10;1870750;76;22137;-57
2021/08/08 01:16:49;;;;;;;10.58;5.55;;;;;;;16.32;85.99;98907.36;1889952;76;22164;-58
2021/08/08 01:19:28;;;;;;;8.43;4.92;;;;;;;16.25;86.28;98906.13;1890156;76;22131;-62
2021/08/08 01:22:30;;;;;;;7.25;4.78;;;;;;;16.19;86.51;98903.61;1871082;76;22599;-49
2021/08/08 01:25:25;;;;;;;9.70;4.83;;;;;;;16.20;86.61;98909.23;1889929;76;22132;-64
2021/08/08 01:28:20;;;;;;;9.30;6.03;;;;;;;16.20;86.62;98906.62;1870621;76;22132;-61
2021/08/08 01:30:55;;;;;;;10.80;6.17;;;;;;;16.20;86.78;98909.23;1873951;76;27904;-58
2021/08/08 01:33:50;;;;;;;8.60;5.42;;;;;;;16.25;86.83;98903.52;1870629;76;22168;-55
2021/08/08 01:36:25;;;;;;;9.83;4.85;;;;;;;16.23;86.79;98915.72;1854885;76;27908;-57
2021/08/08 01:39:06;;;;;;;7.85;5.37;;;;;;;16.27;86.72;98918.69;1870439;76;22175;-60
2021/08/08 01:41:56;;;;;;;5.53;2.33;;;;;;;16.31;86.52;98921.25;1889973;76;22176;-55
2021/08/08 01:44:38;;;;;;;4.15;2.60;;;;;;;16.34;86.07;98915.58;1870701;76;22105;-54
2021/08/08 01:47:37;;;;;;;9.45;4.08;;;;;;;16.43;85.65;98917.19;1870622;76;22144;-60
2021/08/08 01:50:33;;;;;;;6.70;4.42;;;;;;;16.45;85.56;98921.94;1889831;76;22143;-65
2021/08/08 01:53:28;;;;;;;9.03;4.60;;;;;;;16.43;85.51;98918.48;1870599;76;22116;-63
2021/08/08 01:56:04;;;;;;;7.47;3.92;;;;;;;16.44;85.45;98915.02;1854797;76;27852;-69
2021/08/08 01:58:40;;;;;;;8.83;5.47;;;;;;;16.53;85.38;98918.78;1870453;76;22136;-56
2021/08/08 02:01:15;;;;;;;9.93;6.20;;;;;;;16.58;85.04;98916.97;1870713;76;22144;-54
2021/08/08 02:04:21;;;;;;;11.00;3.80;;;;;;;16.57;85.08;98911.80;1870586;76;22129;-62
2021/08/08 02:07:18;;;;;;;3.60;2.20;;;;;;;16.55;84.71;98913.56;1870748;76;22123;-60
2021/08/08 02:10:15;;;;;;;3.37;1.90;;;;;;;16.54;84.41;98911.41;1870655;76;22113;-58
2021/08/08 02:13:10;;;;;;;3.40;1.80;;;;;;;16.58;84.00;98919.58;1870406;76;22144;-58
2021/08/08 02:15:45;;;;;;;6.47;2.40;;;;;;;16.63;83.61;98924.28;1889897;76;22116;-58
2021/08/08 02:18:20;;;;;;;8.18;3.95;;;;;;;16.66;83.59;98916.45;1890002;76;22139;-55
2021/08/08 02:20:55;;;;;;;10.05;6.17;;;;;;;16.67;83.63;98922.52;1870650;76;22223;-65
2021/08/08 02:23:50;;;;;;;10.03;5.92;;;;;;;16.59;83.92;98925.23;1870640;76;22556;-53
2021/08/08 02:26:25;;;;;;;10.50;6.45;;;;;;;16.50;84.20;98925.34;1890119;76;22219;-60
2021/08/08 02:29:20;;;;;;;11.45;6.67;;;;;;;16.39;84.67;98927.24;1870711;76;22601;-50
2021/08/08 02:31:55;;;;;;;11.35;7.30;;;;;;;16.31;85.06;98928.64;1870704;76;22855;-60
2021/08/08 02:34:30;;;;;;;10.38;7.33;;;;;;;16.24;85.49;98929.15;1870720;76;22157;-58
2021/08/08 02:37:06;;;;;;;11.60;6.53;;;;;;;16.21;85.78;98933.10;1870394;76;22164;-58
2021/08/08 02:39:41;;;;;;;10.48;6.12;;;;;;;16.14;86.02;98932.75;1870694;76;22121;-68
2021/08/08 02:42:17;;;;;;;11.63;6.92;;;;;;;16.10;86.28;98935.40;1873911;76;28329;-60
2021/08/08 02:44:53;;;;;;;12.18;6.25;;;;;;;16.17;86.50;98939.66;1870533;76;20204;-62
2021/08/08 02:47:30;;;;;;;9.43;5.87;;;;;;;16.18;86.50;98946.16;1835104;77;22292;-60
2021/08/08 02:50:25;;;;;;;10.58;7.15;;;;;;;16.13;86.73;98933.64;1870648;76;22531;-62
2021/08/08 02:53:00;;;;;;;12.20;7.12;;;;;;;16.06;86.78;98941.09;1889979;76;22139;-57
2021/08/08 02:55:36;;;;;;;12.18;6.70;;;;;;;15.97;86.90;98939.44;1890848;76;22143;-60
2021/08/08 02:58:33;;;;;;;11.55;7.22;;;;;;;15.90;87.10;98936.92;1854611;76;27884;-62
2021/08/08 03:01:26;;;;;;;10.53;6.20;;;;;;;15.96;87.25;98936.88;1870746;76;22117;-61
2021/08/08 03:04:02;;;;;;;12.35;6.95;;;;;;;15.96;87.21;98936.88;1870629;76;22134;-66
2021/08/08 03:06:46;;;;;;;11.85;6.67;;;;;;;15.95;87.25;98936.43;1870500;76;22153;-60
2021/08/08 03:09:40;;;;;;;12.18;6.55;;;;;;;15.93;87.31;98937.77;1889969;76;22112;-53
2021/08/08 03:12:15;;;;;;;9.85;5.58;;;;;;;15.94;87.47;98938.62;1889956;76;22176;-55
2021/08/08 03:15:11;;;;;;;12.05;6.58;;;;;;;16.01;87.54;98948.09;1870461;76;22120;-64
2021/08/08 03:18:06;;;;;;;7.75;5.62;;;;;;;16.07;87.44;98938.91;1889895;76;22119;-61
2021/08/08 03:20:43;;;;;;;8.90;4.85;;;;;;;16.10;87.29;98940.61;1870544;76;22105;-63
2021/08/08 03:23:40;;;;;;;6.78;4.47;;;;;;;16.12;87.17;98939.70;1889968;76;22151;-55
2021/08/08 03:26:35;;;;;;;10.93;5.70;;;;;;;16.14;87.14;98937.95;1870630;76;22132;-56
2021/08/08 03:29:11;;;;;;;8.53;5.55;;;;;;;16.18;87.13;98934.45;1870575;76;22158;-67
2021/08/08 03:31:46;;;;;;;9.93;5.90;;;;;;;16.25;87.05;98937.38;1854732;76;27937;-61
2021/08/08 03:34:21;;;;;;;8.95;5.55;;;;;;;16.37;86.94;98940.27;1889976;76;22526;-60
2021/08/08 03:36:57;;;;;;;8.75;5.17;;;;;;;16.43;86.67;98939.32;1889970;76;22140;-58
2021/08/08 03:39:33;;;;;;;11.60;6.58;;;;;;;16.44;86.48;98941.06;1870454;76;22574;-62
2021/08/08 03:42:27;;;;;;;7.37;4.78;;;;;;;16.47;86.47;98941.02;1870664;76;22186;-68
2021/08/08 03:45:03;;;;;;;9.25;4.55;;;;;;;16.48;86.19;98942.28;1890000;76;22112;-65
2021/08/08 03:47:38;;;;;;;12.23;5.90;;;;;;;16.54;85.92;98950.48;1870627;76;22105;-62
2021/08/08 03:50:13;;;;;;;9.53;5.17;;;;;;;16.59;85.74;98948.67;1890009;76;22143;-60
2021/08/08 03:53:07;;;;;;;6.47;4.03;;;;;;;16.68;85.62;98945.92;1889946;76;22574;-59
2021/08/08 03:55:43;;;;;;;7.72;3.98;;;;;;;16.75;85.46;98940.64;1870482;76;22169;-57
2021/08/08 03:58:18;;;;;;;7.20;4.70;;;;;;;16.82;85.23;98950.13;1870804;76;22107;-54
2021/08/08 04:00:52;;;;;;;10.63;4.90;;;;;;;16.87;85.05;98949.63;1870792;76;22143;-56
2021/08/08 04:03:35;;;;;;;7.10;5.20;;;;;;;16.93;84.89;98956.03;1889943;76;22546;-61
2021/08/08 04:06:11;;;;;;;7.58;5.10;;;;;;;16.99;84.87;98958.54;1868329;76;22171;-61
2021/08/08 04:09:06;;;;;;;10.50;5.83;;;;;;;17.06;84.80;98953.66;1850722;76;22547;-59
2021/08/08 04:11:40;;;;;;;8.58;5.55;;;;;;;17.10;84.78;98955.34;1861084;76;22176;-59
2021/08/08 04:14:15;;;;;;;9.35;5.28;;;;;;;17.12;84.76;98954.88;1855891;76;22211;-53
2021/08/08 04:17:16;;;;;;;10.43;5.20;;;;;;;17.14;84.80;98951.78;1869798;76;22124;-57
2021/08/08 04:19:58;;;;;;;7.20;5.30;;;;;;;17.20;84.53;98965.61;1869771;76;22164;-55
2021/08/08 04:22:52;;;;;;;10.40;5.58;;;;;;;17.24;84.29;98963.38;1889870;76;22156;-61
2021/08/08 04:25:28;;;;;;;8.98;5.50;;;;;;;17.30;84.26;98965.88;1830957;76;28483;-56
2021/08/08 04:28:06;;;;;;;8.80;5.62;;;;;;;17.45;84.08;98961.70;1850120;76;22237;-59
2021/08/08 04:30:59;;;;;;;9.73;5.85;;;;;;;17.66;83.63;98966.17;1870744;76;22113;-54
2021/08/08 04:33:36;;;;;;;10.23;6.25;;;;;;;17.71;83.62;98960.42;1889959;76;22117;-56
2021/08/08 04:36:17;;;;;;;11.95;6.47;;;;;;;17.75;83.31;98959.46;1889921;76;22140;-54
2021/08/08 04:39:11;;;;;;;8.55;5.50;;;;;;;17.79;83.29;98959.84;1889966;76;22116;-56
2021/08/08 04:41:46;;;;;;;12.18;6.15;;;;;;;17.86;83.26;98964.09;1854756;76;38142;-56
2021/08/08 04:44:22;;;;;;;7.83;5.12;;;;;;;18.05;82.97;98963.73;1889947;76;22160;-57
2021/08/08 04:47:17;;;;;;;5.92;4.10;;;;;;;18.18;82.13;98958.68;1890078;76;22156;-53
2021/08/08 04:49:52;;;;;;;10.58;5.28;;;;;;;18.24;81.33;98962.46;1889994;76;22139;-58
2021/08/08 04:52:47;;;;;;;8.00;5.60;;;;;;;18.34;80.72;98964.45;1855852;76;22157;-56
2021/08/08 04:55:22;;;;;;;8.83;5.20;;;;;;;18.40;80.50;98961.73;1852554;76;23902;-59
2021/08/08 04:57:57;;;;;;;7.78;4.95;;;;;;;18.45;80.40;98965.10;1852228;76;22183;-60
2021/08/08 05:00:32;;;;;;;7.45;4.30;;;;;;;18.51;79.93;98966.72;1858933;76;22162;-55
2021/08/08 05:03:06;;;;;;;9.85;4.85;;;;;;;18.63;78.44;98973.00;1890017;76;22188;-53
2021/08/08 05:05:41;;;;;;;6.90;4.30;;;;;;;18.69;78.81;98968.93;1870697;76;22606;-56
2021/08/08 05:08:17;;;;;;;10.28;3.67;;;;;;;18.76;78.36;98971.86;1870486;76;22177;-54
2021/08/08 05:10:52;;;;;;;7.72;3.87;;;;;;;18.85;77.96;98978.63;1888833;76;22211;-59
2021/08/08 05:13:30;;;;;;;7.85;4.00;;;;;;;18.94;77.69;98975.82;1889972;76;22139;-58
2021/08/08 05:16:24;;;;;;;6.65;3.60;;;;;;;19.06;76.84;98976.00;1889958;76;22131;-55
2021/08/08 05:18:59;;;;;;;6.33;3.45;;;;;;;19.16;76.96;98982.73;1870697;76;22113;-60
2021/08/08 05:21:41;;;;;;;9.28;3.22;;;;;;;19.28;76.49;98981.55;1889811;76;22184;-55
2021/08/08 05:24:18;;;;;;;5.70;2.90;;;;;;;19.43;75.55;98981.64;1870669;76;22271;-57
2021/08/08 05:26:56;;;;;;;6.85;3.42;;;;;;;19.58;74.69;98978.63;1870700;76;22604;-57
2021/08/08 05:29:29;;;;;;;8.60;4.17;;;;;;;19.76;73.99;98976.48;1870628;76;22531;-56
2021/08/08 05:32:05;;;;;;;8.28;2.87;;;;;;;20.77;72.04;98983.69;1889959;76;22606;-52
2021/08/08 05:34:59;;;;;;;6.62;2.65;;;;;;;22.91;66.56;98984.27;1889935;76;22112;-55
2021/08/08 05:37:53;;;;;;;5.33;2.35;;;;;;;25.09;59.67;98982.80;1870642;76;22141;-56
2021/08/08 05:40:28;;;;;;;4.72;2.08;;;;;;;26.50;54.58;98992.83;1889974;76;22136;-59
2021/08/08 05:43:03;;;;;;;4.20;1.70;;;;;;;27.87;49.37;99001.09;1889929;76;22562;-58
2021/08/08 05:45:58;;;;;;;3.45;2.00;;;;;;;28.95;46.87;99009.94;1870572;76;22149;-62
2021/08/08 05:48:33;;;;;;;5.40;1.93;;;;;;;30.17;43.82;99010.78;1854855;76;28295;-50
2021/08/08 05:51:28;;;;;;;4.30;1.90;;;;;;;31.61;40.69;99012.48;1835086;77;22701;-54
2021/08/08 05:54:04;;;;;;;4.42;2.10;;;;;;;32.93;38.26;99026.80;1870465;76;22189;-57
2021/08/08 05:56:58;;;;;;;3.70;1.70;;;;;;;34.06;35.20;99039.34;1870636;76;22244;-60
2021/08/08 05:59:33;;;;;;;4.70;1.67;;;;;;;34.35;34.54;99045.77;1874136;76;31796;-60
2021/08/08 06:02:27;;;;;;;2.75;1.40;;;;;;;35.22;32.51;99053.34;1870653;76;22659;-56
2021/08/08 06:05:02;;;;;;;3.98;1.65;;;;;;;35.31;31.08;99053.49;1870693;76;22466;-55
2021/08/08 06:07:58;;;;;;;4.30;1.27;;;;;;;35.13;31.37;99056.84;1889935;76;22635;-55
2021/08/08 06:10:39;;;;;;;2.62;1.55;;;;;;;35.39;31.18;99061.69;1869816;76;22047;-62
2021/08/08 06:13:34;;;;;;;3.35;1.60;;;;;;;36.25;30.17;99061.88;1870481;76;22062;-55
2021/08/08 06:16:28;;;;;;;3.27;1.87;;;;;;;36.77;29.11;99062.32;1889964;76;22132;-58
2021/08/08 06:19:03;;;;;;;3.77;1.70;;;;;;;37.08;28.74;99070.97;1870688;76;22051;-58
2021/08/08 06:21:57;;;;;;;4.03;1.35;;;;;;;37.16;27.68;99067.53;1889976;76;22077;-62
2021/08/08 06:24:51;;;;;;;3.33;1.40;;;;;;;37.55;27.07;99079.41;1889915;76;22484;-59
2021/08/08 06:27:27;;;;;;;3.05;1.55;;;;;;;37.46;26.64;99084.34;1870538;76;22046;-55
2021/08/08 06:30:21;;;;;;;4.60;1.20;;;;;;;37.62;26.23;99083.19;1870630;76;22241;-55
2021/08/08 06:32:56;;;;;;;3.22;1.50;;;;;;;37.85;26.14;99083.56;1874093;76;38170;-57
2021/08/08 06:35:33;;;;;;;3.75;1.40;;;;;;;38.31;25.08;99088.84;1870737;76;22157;-58
2021/08/08 06:38:08;;;;;;;2.50;1.10;;;;;;;38.36;24.76;99095.95;1870667;76;22050;-57
2021/08/08 06:41:02;;;;;;;3.50;1.20;;;;;;;38.60;25.22;99092.62;1870690;76;22058;-58
2021/08/08 06:43:37;;;;;;;4.30;1.10;;;;;;;39.19;24.36;99098.15;1870698;76;22047;-60
2021/08/08 06:46:11;;;;;;;3.15;1.30;;;;;;;39.50;23.50;99101.97;1889936;76;22054;-55
2021/08/08 06:49:06;;;;;;;4.45;1.30;;;;;;;39.07;23.55;99099.77;1870599;76;22087;-59
2021/08/08 06:51:41;;;;;;;4.47;1.40;;;;;;;38.95;24.52;99102.42;1870768;76;22047;-58
2021/08/08 06:54:15;;;;;;;3.10;1.27;;;;;;;39.31;23.66;99103.59;1870664;76;22461;-57
2021/08/08 06:56:51;;;;;;;3.55;1.35;;;;;;;39.73;23.72;99099.98;1890075;76;22042;-51
2021/08/08 06:59:30;;;;;;;3.85;1.20;;;;;;;40.25;22.96;99114.60;1870701;76;22152;-60
2021/08/08 07:02:00;;;;;;;7.08;1.25;;;;;;;40.43;22.40;99111.70;1889970;76;22120;-59
2021/08/08 07:04:35;;;;;;;3.02;1.42;;;;;;;40.56;22.24;99115.23;1870759;76;22154;-60
2021/08/08 07:07:10;;;;;;;2.35;1.37;;;;;;;40.72;21.89;99113.02;1835164;77;22073;-60
2021/08/08 07:09:44;;;;;;;3.12;1.42;;;;;;;40.95;21.96;99125.30;1870705;76;22054;-54
2021/08/08 07:12:39;;;;;;;7.15;1.52;;;;;;;40.14;22.02;99120.30;1870676;76;22058;-56
2021/08/08 07:15:33;;;;;;;4.12;1.45;;;;;;;38.20;24.13;99111.52;1889909;76;22078;-59
2021/08/08 07:18:09;;;;;;;3.10;1.40;;;;;;;37.23;25.67;99109.00;1870580;76;22500;-55
2021/08/08 07:21:04;;;;;;;4.03;1.70;;;;;;;38.16;24.85;99112.31;1870628;76;22627;-57
2021/08/08 07:23:39;;;;;;;5.13;1.50;;;;;;;38.88;24.46;99110.81;1854929;76;28045;-58
2021/08/08 07:26:15;;;;;;;4.65;1.52;;;;;;;40.19;22.78;99120.64;1889925;76;22049;-58
2021/08/08 07:29:10;;;;;;;2.75;1.40;;;;;;;40.12;22.05;99120.97;1870629;76;22063;-61
2021/08/08 07:32:07;;;;;;;2.70;1.37;;;;;;;40.21;22.32;99125.89;1870563;76;22469;-56
2021/08/08 07:34:42;;;;;;;3.77;1.45;;;;;;;41.00;21.56;99129.67;1854947;76;27844;-55
2021/08/08 07:37:56;;;;;;;3.83;1.22;;;;;;;41.20;20.55;99135.04;1874428;75;22618;-62
2021/08/08 07:40:43;;;;;;;3.17;1.50;;;;;;;39.91;21.94;99131.78;1870699;76;22054;-56
2021/08/08 07:43:17;;;;;;;6.30;1.25;;;;;;;39.71;22.05;99133.07;1870746;76;22043;-56
2021/08/08 07:45:52;;;;;;;4.33;1.30;;;;;;;39.48;22.34;99130.16;1870776;76;22047;-56
2021/08/08 07:48:47;;;;;;;2.75;1.22;;;;;;;39.54;22.19;99133.56;1870638;76;22575;-55
2021/08/08 07:51:23;;;;;;;5.72;1.52;;;;;;;39.59;22.19;99138.45;1870484;76;22458;-58
2021/08/08 07:54:19;;;;;;;2.70;1.35;;;;;;;40.33;21.95;99136.73;1890038;76;22061;-57
2021/08/08 07:57:13;;;;;;;4.27;1.50;;;;;;;40.93;21.17;99144.92;1854880;76;38275;-55
2021/08/08 07:59:48;;;;;;;2.72;1.45;;;;;;;41.08;20.80;99143.17;1889962;76;22074;-54
2021/08/08 08:02:43;;;;;;;3.02;1.20;;;;;;;40.70;20.87;99138.89;1889961;76;22061;-56
2021/08/08 08:05:39;;;;;;;2.75;1.32;;;;;;;39.83;20.90;99141.23;1889932;76;22054;-57
2021/08/08 08:08:14;;;;;;;3.17;1.30;;;;;;;39.17;21.74;99142.84;1874101;76;27882;-57
2021/08/08 08:11:10;;;;;;;2.72;1.12;;;;;;;38.64;21.88;99137.97;1870709;76;22062;-62
2021/08/08 08:13:44;;;;;;;3.37;1.20;;;;;;;37.93;22.51;99133.98;1854984;76;27885;-60
2021/08/08 08:16:38;;;;;;;3.12;1.20;;;;;;;38.06;22.30;99130.93;1870672;76;22055;-59
2021/08/08 08:19:32;;;;;;;2.45;1.37;;;;;;;37.97;22.23;99131.34;1870634;76;22087;-63
2021/08/08 08:22:08;;;;;;;4.47;1.25;;;;;;;38.26;22.73;99129.75;1890005;76;22078;-59
2021/08/08 08:25:02;;;;;;;2.85;1.30;;;;;;;39.14;21.96;99137.78;1870694;76;22615;-59
2021/08/08 08:27:39;;;;;;;9.65;1.67;;;;;;;39.11;21.99;99133.19;1870701;76;22161;-57
2021/08/08 08:30:33;;;;;;;3.67;1.40;;;;;;;38.88;22.35;99127.00;1854974;76;30243;-58
2021/08/08 08:33:08;;;;;;;3.05;1.40;;;;;;;38.63;22.26;99127.36;1854943;76;38680;-60
2021/08/08 08:35:43;;;;;;;3.08;1.10;;;;;;;38.17;22.85;99119.42;1890029;76;22058;-57
2021/08/08 08:38:18;;;;;;;2.45;1.10;;;;;;;37.78;21.73;99123.77;1889982;76;22492;-63
2021/08/08 08:40:55;;;;;;;3.37;1.27;;;;;;;37.37;22.40;99119.23;1889972;76;22464;-53
2021/08/08 08:43:50;;;;;;;3.22;1.40;;;;;;;37.43;22.80;99119.63;1870605;76;22082;-57
2021/08/08 08:46:25;;;;;;;2.58;1.10;;;;;;;37.76;22.76;99119.02;1870674;76;22631;-59
2021/08/08 08:49:22;;;;;;;2.40;1.20;;;;;;;38.46;22.34;99112.91;1854794;76;27912;-58
2021/08/08 08:52:23;;;;;;;2.77;1.50;;;;;;;38.84;21.38;99113.48;1874008;76;27857;-56
2021/08/08 08:55:00;;;;;;;1.57;0.90;;;;;;;38.35;20.90;99115.84;1870447;76;22545;-57
2021/08/08 08:57:56;;;;;;;2.70;1.10;;;;;;;37.52;21.80;99106.64;1889952;76;22061;-57
2021/08/08 09:00:51;;;;;;;3.12;1.00;;;;;;;36.57;23.04;99103.22;1870621;76;22062;-54
2021/08/08 09:03:25;;;;;;;2.22;1.27;;;;;;;35.84;23.69;99097.45;1889966;76;22476;-60
2021/08/08 09:06:20;;;;;;;2.45;1.30;;;;;;;35.31;24.80;99096.43;1870663;76;22082;-57
2021/08/08 09:09:15;;;;;;;3.40;1.22;;;;;;;35.04;25.29;99092.52;1870561;76;22087;-58
2021/08/08 09:11:51;;;;;;;6.15;1.30;;;;;;;34.82;25.77;99087.35;1870795;76;22058;-56
2021/08/08 09:14:27;;;;;;;3.52;1.60;;;;;;;34.32;26.47;99088.91;1854795;76;28507;-58
2021/08/08 09:17:02;;;;;;;3.08;1.35;;;;;;;34.02;26.80;99084.75;1870713;76;22090;-57
2021/08/08 09:19:37;;;;;;;4.95;1.50;;;;;;;33.22;27.22;99076.12;1854931;76;27855;-61
2021/08/08 09:22:39;;;;;;;3.33;1.80;;;;;;;32.63;28.37;99066.53;1889919;76;22134;-60
2021/08/08 09:25:23;;;;;;;2.92;1.32;;;;;;;32.07;29.33;99061.06;1889977;76;22074;-57
2021/08/08 09:28:17;;;;;;;4.15;1.70;;;;;;;31.51;30.71;99063.48;1889943;76;22220;-57
2021/08/08 09:31:20;;;;;;;3.27;1.42;;;;;;;31.21;31.45;99059.89;1889915;76;22082;-60
2021/08/08 09:34:36;;;;;;;4.67;1.67;;;;;;;30.89;32.28;99056.41;1869836;76;22509;-58
2021/08/08 09:37:22;;;;;;;4.03;2.00;;;;;;;30.35;32.65;99055.28;1853518;76;22121;-62
2021/08/08 09:39:58;;;;;;;3.15;1.75;;;;;;;29.78;33.24;99055.13;1853621;76;22557;-61
2021/08/08 09:42:53;;;;;;;3.40;1.60;;;;;;;29.21;33.36;99046.86;1855294;76;22124;-61
2021/08/08 09:45:43;;;;;;;4.42;1.75;;;;;;;28.57;34.81;99034.45;1865855;76;22646;-56
2021/08/08 09:48:38;;;;;;;3.60;1.75;;;;;;;28.09;35.41;99043.97;1852662;76;22365;-60
2021/08/08 09:51:14;;;;;;;3.58;1.80;;;;;;;27.83;35.84;99036.69;1859522;76;22088;-60
2021/08/08 09:54:08;;;;;;;5.22;1.95;;;;;;;27.76;36.76;99030.88;1852661;76;22314;-58
2021/08/08 09:57:04;;;;;;;4.40;1.85;;;;;;;27.72;36.16;99029.34;1852781;76;22717;-62
2021/08/08 09:59:50;;;;;;;3.33;1.55;;;;;;;27.55;35.92;99032.11;1857552;76;22314;-58
2021/08/08 10:02:43;;;;;;;5.35;2.15;;;;;;;27.32;36.50;99034.27;1852993;76;22310;-60
2021/08/08 10:05:26;;;;;;;3.95;1.82;;;;;;;27.10;36.87;99029.80;1861458;76;22228;-57
2021/08/08 10:08:28;;;;;;;6.55;2.15;;;;;;;26.98;35.98;99027.34;1862387;76;22184;-59
2021/08/08 10:11:23;;;;;;;6.72;1.98;;;;;;;26.77;36.25;99027.59;1857532;76;22207;-59
2021/08/08 10:14:18;;;;;;;4.55;2.00;;;;;;;26.62;36.97;99027.95;1850797;76;22885;-55
2021/08/08 10:16:59;;;;;;;4.70;2.10;;;;;;;26.61;38.17;99032.87;1849011;76;22259;-63
2021/08/08 10:19:55;;;;;;;4.17;2.10;;;;;;;26.71;38.68;99035.00;1856915;76;22198;-61
2021/08/08 10:22:54;;;;;;;5.37;1.90;;;;;;;26.70;39.02;99035.47;1855842;76;22233;-58
2021/08/08 10:25:51;;;;;;;5.45;2.55;;;;;;;26.74;38.54;99041.00;1856060;76;22159;-61
2021/08/08 10:28:52;;;;;;;5.08;2.20;;;;;;;26.76;38.46;99043.55;1870231;76;22622;-61
2021/08/08 10:31:30;;;;;;;5.08;2.10;;;;;;;26.77;38.09;99042.63;1854931;76;22184;-59
2021/08/08 10:34:32;;;;;;;5.58;1.85;;;;;;;26.93;38.37;99039.98;1861958;76;22810;-55
2021/08/08 10:37:12;;;;;;;4.50;2.27;;;;;;;26.94;38.01;99036.39;1842249;76;28433;-57
2021/08/08 10:39:53;;;;;;;3.40;1.95;;;;;;;27.09;37.73;99038.19;1834971;76;28468;-52
2021/08/08 10:42:49;;;;;;;10.05;2.50;;;;;;;27.23;37.22;99040.11;1850870;76;22179;-58
2021/08/08 10:45:43;;;;;;;6.08;2.40;;;;;;;27.23;35.93;99045.41;1860752;76;22253;-56
2021/08/08 10:48:17;;;;;;;6.17;1.85;;;;;;;27.08;35.94;99044.44;1855752;76;22203;-53
2021/08/08 10:50:52;;;;;;;3.58;1.90;;;;;;;27.01;36.47;99045.71;1851725;76;22154;-60
2021/08/08 10:53:32;;;;;;;3.25;1.77;;;;;;;27.06;36.06;99043.66;1854827;76;22156;-59
2021/08/08 10:56:42;;;;;;;3.58;1.98;;;;;;;27.11;35.83;99047.39;1858572;76;22198;-59
2021/08/08 10:59:36;;;;;;;3.80;1.90;;;;;;;27.14;35.88;99045.88;1857419;76;22210;-55
2021/08/08 11:02:31;;;;;;;3.05;1.70;;;;;;;27.21;34.55;99043.31;1852580;76;22202;-60
2021/08/08 11:05:45;;;;;;;8.85;4.92;;;;;;;27.25;34.96;99042.22;1854317;76;22702;-60
2021/08/08 11:08:31;;;;;;;4.95;2.35;;;;;;;27.33;34.60;99041.78;1867076;76;22162;-54
2021/08/08 11:11:06;;;;;;;4.70;2.02;;;;;;;27.41;34.53;99041.72;1855295;76;22143;-60
2021/08/08 11:14:15;;;;;;;7.53;1.85;;;;;;;27.39;34.52;99044.07;1853539;76;22284;-54
2021/08/08 11:17:07;;;;;;;5.12;2.25;;;;;;;27.44;34.03;99046.84;1850205;76;22211;-62
2021/08/08 11:20:00;;;;;;;3.37;1.60;;;;;;;27.51;34.57;99040.72;1851858;76;22163;-59
2021/08/08 11:23:04;;;;;;;4.85;1.72;;;;;;;27.62;34.12;99042.75;1856076;76;22611;-58
2021/08/08 11:25:59;;;;;;;4.35;1.80;;;;;;;27.71;34.62;99042.23;1856357;76;22651;-52
2021/08/08 11:28:59;;;;;;;4.95;2.08;;;;;;;27.76;34.97;99037.52;1834766;76;27913;-65
2021/08/08 11:32:00;;;;;;;4.25;1.65;;;;;;;27.84;35.34;99037.09;1853028;76;22155;-55
2021/08/08 11:35:13;;;;;;;4.30;1.77;;;;;;;27.81;34.84;99035.47;1858696;76;22219;-54
2021/08/08 11:38:04;;;;;;;4.05;1.90;;;;;;;27.86;34.04;99033.41;1841934;76;22192;-59
2021/08/08 11:40:58;;;;;;;3.47;1.77;;;;;;;28.06;33.86;99031.34;1873119;76;22600;-56
2021/08/08 11:44:13;;;;;;;3.27;1.45;;;;;;;28.14;32.39;99033.09;1889989;76;22194;-58
2021/08/08 11:47:01;;;;;;;6.92;1.90;;;;;;;28.19;32.90;99029.69;1870099;76;22180;-59
2021/08/08 11:49:57;;;;;;;3.95;1.92;;;;;;;28.29;33.48;99033.94;1869836;76;22149;-59
2021/08/08 11:53:01;;;;;;;3.95;2.08;;;;;;;28.34;33.06;99033.19;1889899;76;22292;-57
2021/08/08 11:55:37;;;;;;;8.83;2.05;;;;;;;28.38;33.41;99028.56;1870680;76;22568;-60
2021/08/08 11:58:18;;;;;;;7.33;3.80;;;;;;;28.41;33.66;99027.03;1869843;76;22137;-58
2021/08/08 12:01:13;;;;;;;5.25;2.50;;;;;;;28.49;33.94;99028.77;1870642;76;22535;-63
2021/08/08 12:04:08;;;;;;;3.67;2.00;;;;;;;28.60;33.33;99036.95;1870722;76;22125;-61
2021/08/08 12:07:10;;;;;;;4.22;1.90;;;;;;;28.82;33.43;99031.61;1869813;76;22168;-57
2021/08/08 12:09:48;;;;;;;4.40;1.75;;;;;;;28.90;33.01;99030.64;1889997;76;22135;-60
2021/08/08 12:12:42;;;;;;;4.33;2.20;;;;;;;28.96;33.30;99029.78;1870538;76;22152;-58
2021/08/08 12:15:19;;;;;;;6.83;1.87;;;;;;;29.15;33.66;99029.48;1890067;76;22096;-60
2021/08/08 12:18:30;;;;;;;3.62;1.60;;;;;;;29.35;32.69;99027.34;1869772;76;22171;-57
2021/08/08 12:21:17;;;;;;;4.00;1.90;;;;;;;29.47;32.64;99027.88;1890008;76;22584;-54
2021/08/08 12:24:12;;;;;;;3.72;1.90;;;;;;;29.65;32.26;99023.17;1890045;76;22127;-56
2021/08/08 12:27:08;;;;;;;5.15;1.85;;;;;;;29.70;30.94;99017.55;1870647;76;22299;-63
2021/08/08 12:30:10;;;;;;;2.40;1.40;;;;;;;29.59;31.09;99016.42;1889939;76;22062;-57
2021/08/08 12:32:45;;;;;;;4.28;2.20;;;;;;;29.55;30.50;99024.22;1889962;76;22563;-54
2021/08/08 12:35:42;;;;;;;3.08;1.42;;;;;;;29.70;31.53;99014.41;1870514;76;22157;-61
2021/08/08 12:38:21;;;;;;;4.08;1.87;;;;;;;29.77;31.48;99017.52;1870674;76;22137;-63
2021/08/08 12:41:32;;;;;;;5.87;2.10;;;;;;;29.85;30.47;99013.38;1870434;76;22172;-61
2021/08/08 12:44:09;;;;;;;3.33;1.90;;;;;;;29.77;31.12;99012.20;1889947;76;22298;-58
2021/08/08 12:47:05;;;;;;;3.10;1.70;;;;;;;29.70;30.90;99020.20;1870576;76;22147;-61
2021/08/08 12:49:42;;;;;;;3.00;1.67;;;;;;;29.61;30.90;99026.95;1870734;76;22283;-60
2021/08/08 12:52:39;;;;;;;4.65;1.98;;;;;;;29.70;30.80;99024.20;1870491;76;22079;-57
2021/08/08 12:55:15;;;;;;;3.27;1.82;;;;;;;29.66;30.85;99027.52;1870724;76;22135;-60
2021/08/08 12:58:10;;;;;;;6.80;2.25;;;;;;;29.56;30.60;99027.73;1870433;76;22164;-56